Time;durP1;ratioP1;P1;durP2;ratioP2;P2;SDS_P1;SDS_P2;PMS_P1;PMS_P2;Temp;Humidity;BMP_temperature;BMP_pressure;BME280_temperature;BME280_humidity;BME280_pressure;Samples;Min_cycle;Max_cycle;Signal;HPM_P1;HPM_P2
2022/10/04 00:00:43;;;;;;;29.13;26.93;;;8.60;99.90;;;;;;5110864;28;20484;-70
2022/10/04 00:03:12;;;;;;;29.40;27.30;;;8.60;99.90;;;;;;5110949;28;20475;-71
2022/10/04 00:05:41;;;;;;;30.00;27.57;;;8.60;99.90;;;;;;5110975;28;20449;-71
2022/10/04 00:08:26;;;;;;;30.97;28.07;;;8.50;99.90;;;;;;5111049;28;20453;-72
2022/10/04 00:11:05;;;;;;;28.60;26.20;;;8.50;99.90;;;;;;5111012;28;20818;-71
2022/10/04 00:13:33;;;;;;;29.57;27.27;;;8.50;99.90;;;;;;5110720;28;20935;-71
2022/10/04 00:16:01;;;;;;;28.50;26.43;;;8.50;99.90;;;;;;5110453;28;20441;-71
2022/10/04 00:18:31;;;;;;;29.77;27.57;;;8.40;99.90;;;;;;5110593;28;20456;-72
2022/10/04 00:21:03;;;;;;;29.57;27.13;;;8.40;99.90;;;;;;5110621;28;20481;-72
2022/10/04 00:23:45;;;;;;;33.50;30.20;;;8.40;99.90;;;;;;5110525;28;21106;-71
2022/10/04 00:27:08;;;;;;;31.50;29.07;;;8.40;99.90;;;;;;5110534;28;20445;-72
2022/10/04 00:29:37;;;;;;;28.47;26.13;;;8.40;99.90;;;;;;5110769;28;20441;-72
2022/10/04 00:32:24;;;;;;;29.43;27.13;;;8.40;99.90;;;;;;5110324;28;20445;-73
2022/10/04 00:34:52;;;;;;;30.30;27.40;;;8.40;99.90;;;;;;5110637;28;20461;-73
2022/10/04 00:37:22;;;;;;;29.13;26.97;;;8.30;99.90;;;;;;5110361;28;20453;-73
2022/10/04 00:40:09;;;;;;;29.23;27.10;;;8.40;99.90;;;;;;5110244;28;20950;-73
2022/10/04 00:42:47;;;;;;;33.50;30.50;;;8.30;99.90;;;;;;5110544;28;20477;-74
2022/10/04 00:45:27;;;;;;;32.33;29.50;;;8.30;99.90;;;;;;5110351;28;20927;-73
2022/10/04 00:48:14;;;;;;;31.13;28.50;;;8.30;99.90;;;;;;5110537;28;20471;-74
2022/10/04 00:50:44;;;;;;;33.97;30.67;;;8.30;99.90;;;;;;5110111;28;20477;-73
2022/10/04 00:53:21;;;;;;;32.30;29.33;;;8.20;99.90;;;;;;5110218;28;20457;-74
2022/10/04 00:55:51;;;;;;;33.37;30.67;;;8.30;99.90;;;;;;5110246;28;20453;-73
2022/10/04 00:58:23;;;;;;;31.20;29.00;;;8.20;99.90;;;;;;5110354;28;20456;-74
2022/10/04 01:00:51;;;;;;;32.80;30.10;;;8.20;99.90;;;;;;5110104;28;20511;-75
2022/10/04 01:03:23;;;;;;;30.33;28.10;;;8.10;99.90;;;;;;5110090;28;20461;-75
2022/10/04 01:05:55;;;;;;;32.83;30.43;;;8.10;99.90;;;;;;5110303;28;20464;-74
2022/10/04 01:08:27;;;;;;;30.97;28.77;;;8.10;99.90;;;;;;5110285;28;20958;-74
2022/10/04 01:10:58;;;;;;;31.27;28.87;;;8.10;99.90;;;;;;5111628;28;20460;-75
2022/10/04 01:13:30;;;;;;;31.57;28.87;;;8.10;99.90;;;;;;5114439;28;20823;-75
2022/10/04 01:16:01;;;;;;;32.07;29.53;;;8.10;99.90;;;;;;5114191;28;20983;-74
2022/10/04 01:18:31;;;;;;;31.87;29.57;;;8.10;99.90;;;;;;5113983;28;20446;-74
2022/10/04 01:21:02;;;;;;;31.73;29.33;;;8.00;99.90;;;;;;5113953;28;20460;-74
2022/10/04 01:23:40;;;;;;;33.53;30.77;;;8.00;99.90;;;;;;5114120;28;20802;-74
2022/10/04 01:26:39;;;;;;;31.10;28.47;;;8.00;99.90;;;;;;5114162;28;20475;-74
2022/10/04 01:29:10;;;;;;;30.43;27.93;;;8.00;99.90;;;;;;5114004;28;20449;-74
2022/10/04 01:31:39;;;;;;;33.17;30.10;;;8.00;99.90;;;;;;5114096;28;20471;-74
2022/10/04 01:34:06;;;;;;;31.53;29.13;;;8.00;99.90;;;;;;5114060;28;20468;-74
2022/10/04 01:36:35;;;;;;;31.97;29.57;;;8.00;99.90;;;;;;5113691;28;20460;-74
2022/10/04 01:39:04;;;;;;;33.73;31.10;;;8.00;99.90;;;;;;5113716;28;20544;-74
2022/10/04 01:41:40;;;;;;;32.70;30.30;;;8.00;99.90;;;;;;5113488;28;20575;-75
2022/10/04 01:44:11;;;;;;;34.27;31.37;;;7.90;99.90;;;;;;5113904;28;20444;-75
2022/10/04 01:46:40;;;;;;;35.83;32.93;;;7.90;99.90;;;;;;5113902;28;20448;-74
2022/10/04 01:49:12;;;;;;;35.77;32.93;;;7.80;99.90;;;;;;5113628;28;20473;-75
2022/10/04 01:51:45;;;;;;;34.60;31.90;;;7.80;99.90;;;;;;5113682;28;20445;-74
2022/10/04 01:54:17;;;;;;;34.60;31.60;;;7.80;99.90;;;;;;5113384;28;20547;-75
2022/10/04 01:56:49;;;;;;;33.50;30.80;;;7.80;99.90;;;;;;5113725;28;20449;-74
2022/10/04 01:59:21;;;;;;;33.63;30.73;;;7.80;99.90;;;;;;5113343;28;20448;-75
2022/10/04 02:01:53;;;;;;;33.80;31.13;;;7.80;99.90;;;;;;5113339;28;20481;-75
2022/10/04 02:04:23;;;;;;;33.33;30.70;;;7.70;99.90;;;;;;5113570;28;20836;-75
2022/10/04 02:06:55;;;;;;;33.83;31.00;;;7.70;99.90;;;;;;5113251;28;20444;-76
2022/10/04 02:09:27;;;;;;;34.03;31.13;;;7.70;99.90;;;;;;5113172;28;20449;-76
2022/10/04 02:11:57;;;;;;;32.50;30.17;;;7.70;99.90;;;;;;5113289;28;20456;-77
2022/10/04 02:14:27;;;;;;;33.53;31.23;;;7.70;99.90;;;;;;5113272;28;20548;-77
2022/10/04 02:16:54;;;;;;;34.37;31.67;;;7.70;99.90;;;;;;5113156;28;20452;-77
2022/10/04 02:19:23;;;;;;;34.03;31.37;;;7.60;99.90;;;;;;5113014;28;20445;-76
2022/10/04 02:21:51;;;;;;;34.47;31.37;;;7.60;99.90;;;;;;5112507;28;20477;-76
2022/10/04 02:24:19;;;;;;;34.13;31.43;;;7.60;99.90;;;;;;5112716;28;20453;-76
2022/10/04 02:26:51;;;;;;;32.13;29.43;;;7.60;99.90;;;;;;5112672;28;20449;-77
2022/10/04 02:29:19;;;;;;;33.43;31.03;;;7.60;99.90;;;;;;5112770;28;20449;-74
2022/10/04 02:34:31;;;;;;;33.57;30.77;;;7.60;99.90;;;;;;5112480;28;20833;-75
2022/10/04 02:37:02;;;;;;;33.93;31.20;;;7.50;99.90;;;;;;5112460;28;20456;-75
2022/10/04 02:39:37;;;;;;;35.37;32.57;;;7.50;99.90;;;;;;5112181;28;20453;-76
2022/10/04 02:42:14;;;;;;;35.03;32.20;;;7.50;99.90;;;;;;5111727;28;20479;-73
2022/10/04 02:44:43;;;;;;;35.17;32.27;;;7.50;99.90;;;;;;5111726;28;20458;-73
2022/10/04 02:47:15;;;;;;;35.70;32.53;;;7.40;99.90;;;;;;5111713;28;20445;-73
2022/10/04 02:49:46;;;;;;;33.47;31.07;;;7.40;99.90;;;;;;5111465;28;20473;-73
2022/10/04 02:52:20;;;;;;;33.70;31.07;;;7.40;99.90;;;;;;5111528;28;20949;-73
2022/10/04 02:54:52;;;;;;;34.83;32.23;;;7.50;99.90;;;;;;5111731;28;20449;-74
2022/10/04 02:57:22;;;;;;;33.33;30.90;;;7.40;99.90;;;;;;5111711;28;20446;-74
2022/10/04 02:59:50;;;;;;;34.30;31.80;;;7.40;99.90;;;;;;5111820;28;20449;-74
2022/10/04 03:02:24;;;;;;;33.83;31.23;;;7.40;99.90;;;;;;5111197;28;20575;-74
2022/10/04 03:04:52;;;;;;;32.43;30.07;;;7.30;99.90;;;;;;5111484;28;20961;-75
2022/10/04 03:07:21;;;;;;;33.30;30.73;;;7.30;99.90;;;;;;5111267;28;20437;-74
2022/10/04 03:09:48;;;;;;;32.97;30.67;;;7.30;99.90;;;;;;5111233;28;20449;-74
2022/10/04 03:12:16;;;;;;;32.90;30.40;;;7.20;99.90;;;;;;5110983;28;20450;-75
2022/10/04 03:14:44;;;;;;;32.47;30.10;;;7.30;99.90;;;;;;5111052;28;20452;-75
2022/10/04 03:17:14;;;;;;;32.47;30.17;;;7.30;99.90;;;;;;5111485;28;20453;-74
2022/10/04 03:19:41;;;;;;;30.10;27.90;;;7.20;99.90;;;;;;5111878;28;20445;-74
2022/10/04 03:22:09;;;;;;;32.07;29.80;;;7.20;99.90;;;;;;5111856;28;20504;-75
2022/10/04 03:24:45;;;;;;;31.30;29.20;;;7.10;99.90;;;;;;5111592;28;20441;-75
2022/10/04 03:27:16;;;;;;;31.53;29.23;;;7.20;99.90;;;;;;5110831;28;20511;-75
2022/10/04 03:29:45;;;;;;;30.47;28.27;;;7.10;99.90;;;;;;5110871;28;20492;-75
2022/10/04 03:32:14;;;;;;;31.60;29.30;;;7.10;99.90;;;;;;5110642;28;20444;-75
2022/10/04 03:34:47;;;;;;;32.10;29.60;;;7.10;99.90;;;;;;5109874;28;20476;-75
2022/10/04 03:37:16;;;;;;;31.73;29.63;;;7.10;99.90;;;;;;5110811;28;20469;-75
2022/10/04 03:39:46;;;;;;;34.40;31.70;;;7.10;99.90;;;;;;5110487;28;20445;-75
2022/10/04 03:42:17;;;;;;;33.90;30.90;;;7.10;99.90;;;;;;5110511;28;20489;-76
2022/10/04 03:44:46;;;;;;;34.30;31.37;;;7.10;99.90;;;;;;5110472;28;20445;-75
2022/10/04 03:47:16;;;;;;;33.77;31.10;;;7.10;99.90;;;;;;5110447;28;20452;-74
2022/10/04 03:49:44;;;;;;;33.03;30.30;;;7.10;99.90;;;;;;5110388;28;20500;-74
2022/10/04 03:52:23;;;;;;;34.20;31.57;;;7.10;99.90;;;;;;5110555;28;20449;-74
2022/10/04 03:54:52;;;;;;;33.60;30.80;;;7.00;99.90;;;;;;5110617;28;20452;-74
2022/10/04 03:57:19;;;;;;;36.90;33.60;;;7.00;99.90;;;;;;5110378;28;20445;-75
2022/10/04 03:59:48;;;;;;;36.17;33.40;;;7.00;99.90;;;;;;5110182;28;20855;-75
2022/10/04 04:02:22;;;;;;;36.90;33.80;;;7.00;99.90;;;;;;5110116;28;21013;-75
2022/10/04 04:04:58;;;;;;;37.50;34.23;;;7.00;99.90;;;;;;5110295;28;20790;-74
2022/10/04 04:07:28;;;;;;;34.60;31.80;;;7.00;99.90;;;;;;5110401;28;20459;-74
2022/10/04 04:10:02;;;;;;;32.80;30.40;;;6.90;99.90;;;;;;5110264;28;20542;-74
2022/10/04 04:12:37;;;;;;;32.37;30.00;;;6.90;99.90;;;;;;5110319;28;20830;-75
2022/10/04 04:15:09;;;;;;;33.60;31.10;;;6.90;99.90;;;;;;5110178;28;20483;-75
2022/10/04 04:17:40;;;;;;;33.80;31.00;;;6.90;99.90;;;;;;5110463;28;20456;-75
2022/10/04 04:20:17;;;;;;;32.80;30.60;;;6.90;99.90;;;;;;5110296;28;20976;-75
2022/10/04 04:22:48;;;;;;;31.77;29.57;;;6.90;99.90;;;;;;5109872;28;20484;-74
2022/10/04 04:25:16;;;;;;;30.70;28.50;;;6.90;99.90;;;;;;5109919;28;20828;-74
2022/10/04 04:27:48;;;;;;;30.10;27.93;;;6.80;99.90;;;;;;5110057;28;20480;-74
2022/10/04 04:30:18;;;;;;;32.27;29.37;;;6.80;99.90;;;;;;5109915;28;20551;-75
2022/10/04 04:32:51;;;;;;;33.07;30.40;;;6.80;99.90;;;;;;5109792;28;20440;-75
2022/10/04 04:35:23;;;;;;;31.87;29.67;;;6.80;99.90;;;;;;5109770;28;20471;-75
2022/10/04 04:38:04;;;;;;;31.47;29.37;;;6.80;99.90;;;;;;5110053;28;20441;-75
2022/10/04 04:40:31;;;;;;;33.27;30.37;;;6.90;99.90;;;;;;5109883;28;20449;-76
2022/10/04 04:42:59;;;;;;;33.20;30.70;;;6.90;99.90;;;;;;5109904;28;20488;-78
2022/10/04 04:45:30;;;;;;;35.45;32.65;;;6.90;99.90;;;;;;5109005;28;20427;-81
2022/10/04 04:47:58;;;;;;;34.63;31.97;;;6.90;99.90;;;;;;5109687;28;20307;-75
2022/10/04 04:50:30;;;;;;;36.83;33.50;;;6.90;99.90;;;;;;5109368;28;20490;-76
2022/10/04 04:53:02;;;;;;;34.93;32.23;;;6.90;99.90;;;;;;5109551;28;20876;-75
2022/10/04 04:55:34;;;;;;;35.90;33.00;;;6.90;99.90;;;;;;5108428;28;20958;-75
2022/10/04 04:58:01;;;;;;;36.37;33.47;;;6.90;99.90;;;;;;5109383;28;20586;-75
2022/10/04 05:00:33;;;;;;;36.00;33.10;;;6.80;99.90;;;;;;5108927;28;20969;-75
2022/10/04 05:03:02;;;;;;;35.60;32.83;;;6.80;99.90;;;;;;5110534;28;20481;-75
2022/10/04 05:05:30;;;;;;;34.00;31.50;;;6.80;99.90;;;;;;5110303;28;20472;-76
2022/10/04 05:08:14;;;;;;;34.93;32.33;;;6.80;99.90;;;;;;5109882;28;20479;-77
2022/10/04 05:10:44;;;;;;;34.13;31.43;;;6.80;99.90;;;;;;5110072;28;20454;-76
2022/10/04 05:13:12;;;;;;;33.23;30.63;;;6.80;99.90;;;;;;5110023;28;20445;-77
2022/10/04 05:15:42;;;;;;;33.23;30.53;;;6.80;99.90;;;;;;5109876;28;20946;-77
2022/10/04 05:18:29;;;;;;;34.50;31.83;;;6.80;99.90;;;;;;5109508;28;20453;-76
2022/10/04 05:20:58;;;;;;;32.33;29.93;;;6.80;99.90;;;;;;5109551;28;20444;-77
2022/10/04 05:23:24;;;;;;;33.50;31.20;;;6.70;99.90;;;;;;5110167;28;20481;-77
2022/10/04 05:25:52;;;;;;;33.43;30.50;;;6.70;99.90;;;;;;5110048;28;20452;-78
2022/10/04 05:28:18;;;;;;;33.93;31.33;;;6.70;99.90;;;;;;5110037;28;20457;-76
2022/10/04 05:30:56;;;;;;;35.40;32.60;;;6.70;99.90;;;;;;5109430;28;20448;-77
2022/10/04 05:33:38;;;;;;;34.50;32.03;;;6.70;99.90;;;;;;5110074;28;20441;-77
2022/10/04 05:36:38;;;;;;;33.60;31.20;;;6.70;99.90;;;;;;5109966;28;20452;-76
2022/10/04 05:39:11;;;;;;;34.63;32.00;;;6.70;99.90;;;;;;5110064;28;20437;-77
2022/10/04 05:41:48;;;;;;;35.00;32.00;;;6.70;99.90;;;;;;5110261;28;20453;-76
2022/10/04 05:44:22;;;;;;;34.63;32.03;;;6.80;99.90;;;;;;5109487;28;21008;-77
2022/10/04 05:46:52;;;;;;;37.20;34.13;;;6.80;99.90;;;;;;5110401;28;20452;-77
2022/10/04 05:49:21;;;;;;;35.23;32.63;;;6.80;99.90;;;;;;5110029;28;20537;-76
2022/10/04 05:51:54;;;;;;;35.17;32.30;;;6.80;99.90;;;;;;5110038;28;20935;-76
2022/10/04 05:54:23;;;;;;;35.50;32.87;;;6.80;99.90;;;;;;5110630;28;20441;-76
2022/10/04 05:57:27;;;;;;;35.47;32.67;;;6.90;99.90;;;;;;5111657;28;20441;-76
2022/10/04 06:00:13;;;;;;;33.77;31.17;;;6.90;99.90;;;;;;5107699;28;20472;-76
2022/10/04 06:03:05;;;;;;;33.23;30.90;;;6.90;99.90;;;;;;5113301;28;20990;-77
2022/10/04 06:05:48;;;;;;;36.17;33.43;;;6.90;99.90;;;;;;5113285;28;20452;-76
2022/10/04 06:08:22;;;;;;;37.17;34.17;;;6.90;99.90;;;;;;5113343;28;21012;-76
2022/10/04 06:11:03;;;;;;;35.33;32.27;;;6.90;99.90;;;;;;5113150;28;20937;-77
2022/10/04 06:13:51;;;;;;;34.90;32.20;;;6.90;99.90;;;;;;5113198;28;20444;-78
2022/10/04 06:16:29;;;;;;;37.67;34.27;;;7.10;99.90;;;;;;5113643;28;20477;-83
2022/10/04 06:19:25;;;;;;;37.80;33.97;;;7.10;99.90;;;;;;5112814;28;20438;-77
2022/10/04 06:22:11;;;;;;;38.33;34.87;;;7.20;99.90;;;;;;5113793;28;20453;-77
2022/10/04 06:24:43;;;;;;;39.87;35.93;;;7.20;99.90;;;;;;5114184;28;20559;-74
2022/10/04 06:27:15;;;;;;;37.10;33.70;;;7.30;99.90;;;;;;5112518;28;20571;-73
2022/10/04 06:29:48;;;;;;;38.80;35.17;;;7.40;99.90;;;;;;5112789;28;20477;-72
2022/10/04 06:32:45;;;;;;;38.70;34.70;;;7.40;99.90;;;;;;5112583;28;20448;-73
2022/10/04 06:35:29;;;;;;;41.10;37.23;;;7.40;99.90;;;;;;5112313;28;20473;-73
2022/10/04 06:38:22;;;;;;;40.33;36.53;;;7.40;99.90;;;;;;5111868;28;20788;-72
2022/10/04 06:41:12;;;;;;;38.43;35.13;;;7.40;99.90;;;;;;5112075;28;20490;-73
2022/10/04 06:43:55;;;;;;;37.47;34.27;;;7.50;99.90;;;;;;5111813;28;20484;-73
2022/10/04 06:46:28;;;;;;;36.17;33.27;;;7.50;99.90;;;;;;5112005;28;20459;-73
2022/10/04 06:49:34;;;;;;;37.07;33.73;;;7.60;99.90;;;;;;5111504;28;20473;-72
2022/10/04 06:52:19;;;;;;;34.97;32.17;;;7.70;99.90;;;;;;5104902;28;20445;-73
2022/10/04 06:55:08;;;;;;;34.43;31.40;;;7.70;99.90;;;;;;5112031;28;20795;-72
2022/10/04 06:58:15;;;;;;;32.43;29.60;;;7.80;99.90;;;;;;5111609;28;20608;-73
2022/10/04 07:00:52;;;;;;;30.60;28.13;;;7.90;99.90;;;;;;5028475;28;20456;-73
2022/10/04 07:03:26;;;;;;;29.00;26.70;;;7.90;99.90;;;;;;5103594;28;20488;-72
2022/10/04 07:05:59;;;;;;;29.23;26.83;;;8.00;99.90;;;;;;5111838;28;20496;-72
2022/10/04 07:08:35;;;;;;;27.40;24.90;;;8.10;99.90;;;;;;5111489;28;20464;-72
2022/10/04 07:11:07;;;;;;;25.07;23.17;;;8.20;99.90;;;;;;5111772;28;20552;-73
2022/10/04 07:13:48;;;;;;;24.80;22.80;;;8.30;99.90;;;;;;5108531;28;20460;-73
2022/10/04 07:16:28;;;;;;;24.33;22.67;;;8.40;99.90;;;;;;5099640;28;20457;-72
2022/10/04 07:19:03;;;;;;;25.00;22.90;;;8.60;99.90;;;;;;5103528;28;20452;-73
2022/10/04 07:21:39;;;;;;;24.03;22.43;;;8.80;99.90;;;;;;5111005;28;20557;-74
2022/10/04 07:24:11;;;;;;;24.20;22.40;;;9.10;99.90;;;;;;5091040;28;20489;-73
2022/10/04 07:26:45;;;;;;;23.80;22.20;;;9.00;99.90;;;;;;5090085;28;20453;-71
2022/10/04 07:29:19;;;;;;;25.83;23.73;;;9.00;99.90;;;;;;5090661;28;20445;-72
2022/10/04 07:31:47;;;;;;;24.33;22.53;;;9.00;99.90;;;;;;5103241;28;20631;-73
2022/10/04 07:34:18;;;;;;;23.83;21.97;;;9.20;99.90;;;;;;5110779;28;20463;-73
2022/10/04 07:36:49;;;;;;;24.70;22.80;;;9.30;99.90;;;;;;5110670;28;20497;-73
2022/10/04 07:39:20;;;;;;;23.00;21.40;;;9.30;99.90;;;;;;5108361;28;20448;-73
2022/10/04 07:41:53;;;;;;;21.77;20.37;;;9.30;99.90;;;;;;5094776;28;21014;-74
2022/10/04 07:44:29;;;;;;;22.63;21.00;;;9.40;99.90;;;;;;5109936;28;20512;-74
2022/10/04 07:47:00;;;;;;;22.53;20.53;;;9.60;99.90;;;;;;5108673;28;20449;-73
2022/10/04 07:49:27;;;;;;;21.40;19.90;;;9.80;99.90;;;;;;5110199;28;20477;-73
2022/10/04 07:52:21;;;;;;;23.10;21.50;;;9.90;99.90;;;;;;5110682;28;20445;-74
2022/10/04 07:54:55;;;;;;;22.43;20.83;;;10.20;99.90;;;;;;5109865;28;20449;-72
2022/10/04 07:57:29;;;;;;;19.87;18.17;;;10.60;99.90;;;;;;5110606;28;20444;-73
2022/10/04 08:00:04;;;;;;;19.90;18.40;;;11.20;99.90;;;;;;5109998;28;20452;-73
2022/10/04 08:02:42;;;;;;;18.37;17.13;;;11.60;99.90;;;;;;5110064;28;20445;-72
2022/10/04 08:05:20;;;;;;;19.27;17.67;;;11.60;99.90;;;;;;5110407;28;20480;-74
2022/10/04 08:08:06;;;;;;;19.07;17.77;;;11.50;99.90;;;;;;5110202;28;20449;-73
2022/10/04 08:10:43;;;;;;;18.70;17.60;;;11.20;99.90;;;;;;5110125;28;20458;-72
2022/10/04 08:13:20;;;;;;;18.60;17.50;;;11.20;99.90;;;;;;5110245;28;20793;-73
2022/10/04 08:15:48;;;;;;;19.13;17.67;;;11.20;99.90;;;;;;5108612;27;20450;-73
2022/10/04 08:18:26;;;;;;;18.43;17.30;;;11.20;99.90;;;;;;5109795;28;20947;-73
2022/10/04 08:20:57;;;;;;;20.47;19.17;;;11.30;99.90;;;;;;5109787;28;20930;-73
2022/10/04 08:23:40;;;;;;;20.90;18.97;;;11.20;99.90;;;;;;5109847;28;20843;-73
2022/10/04 08:26:29;;;;;;;20.67;19.37;;;11.30;99.90;;;;;;5109908;28;20461;-72
2022/10/04 08:32:05;;;;;;;18.10;16.67;;;11.20;99.90;;;;;;5109695;28;20425;-71
2022/10/04 08:34:45;;;;;;;19.30;17.97;;;11.20;99.90;;;;;;5109418;28;20472;-72
2022/10/04 08:37:23;;;;;;;23.23;20.97;;;11.30;99.90;;;;;;5109666;28;20806;-72
2022/10/04 08:40:04;;;;;;;18.00;16.70;;;11.60;99.90;;;;;;5109964;28;20445;-72
2022/10/04 08:43:03;;;;;;;17.40;16.27;;;11.80;99.90;;;;;;5109530;28;20446;-73
2022/10/04 08:46:02;;;;;;;16.77;15.60;;;12.20;99.90;;;;;;5103355;28;20625;-73
2022/10/04 08:49:07;;;;;;;18.80;17.00;;;12.70;99.90;;;;;;5109099;28;20453;-73
2022/10/04 08:52:01;;;;;;;17.30;16.03;;;13.10;99.90;;;;;;5109501;28;20449;-72
2022/10/04 08:54:57;;;;;;;16.97;15.83;;;13.60;99.90;;;;;;5107040;28;20453;-73
2022/10/04 08:57:52;;;;;;;16.40;15.30;;;13.50;99.90;;;;;;5064755;28;20437;-73
2022/10/04 09:00:31;;;;;;;15.60;14.50;;;13.40;99.90;;;;;;5109654;28;20445;-72
2022/10/04 09:03:57;;;;;;;15.83;14.73;;;13.30;99.90;;;;;;5109259;28;20460;-73
2022/10/04 09:06:38;;;;;;;15.13;14.27;;;13.30;99.90;;;;;;5109495;28;20437;-72
2022/10/04 09:10:07;;;;;;;17.13;16.03;;;14.10;99.90;;;;;;5109171;28;20476;-72
2022/10/04 09:12:50;;;;;;;16.80;15.90;;;14.90;99.90;;;;;;5026335;28;20667;-72
2022/10/04 09:15:30;;;;;;;14.90;13.83;;;15.50;99.90;;;;;;5024381;28;20452;-72
2022/10/04 09:18:07;;;;;;;15.53;14.23;;;15.80;99.90;;;;;;5078258;28;20472;-71
2022/10/04 09:20:49;;;;;;;14.17;13.37;;;16.10;99.90;;;;;;5109112;28;20762;-73
2022/10/04 09:23:49;;;;;;;15.17;14.07;;;16.70;99.90;;;;;;5108972;28;20456;-72
2022/10/04 09:26:22;;;;;;;16.23;15.13;;;17.50;99.90;;;;;;5109051;28;20453;-73
2022/10/04 09:29:32;;;;;;;16.50;15.50;;;18.10;99.90;;;;;;5108852;28;20449;-73
2022/10/04 09:32:33;;;;;;;17.40;16.00;;;18.20;99.90;;;;;;5072156;28;20545;-72
2022/10/04 09:35:39;;;;;;;18.30;17.03;;;18.30;99.90;;;;;;5112881;28;20456;-73
2022/10/04 09:38:27;;;;;;;17.53;16.00;;;18.20;99.90;;;;;;5078508;27;20950;-73
2022/10/04 09:41:06;;;;;;;15.60;14.60;;;18.20;99.90;;;;;;5113132;28;20452;-73
2022/10/04 09:44:11;;;;;;;15.20;14.27;;;17.80;99.90;;;;;;5112610;28;20435;-73
2022/10/04 09:46:58;;;;;;;13.93;12.97;;;17.70;99.90;;;;;;5112997;28;20862;-73
2022/10/04 09:49:51;;;;;;;16.37;15.13;;;17.90;99.20;;;;;;5112825;28;20553;-73
2022/10/04 09:52:29;;;;;;;15.03;13.93;;;17.80;99.90;;;;;;5112622;28;20452;-73
2022/10/04 09:55:17;;;;;;;15.00;13.83;;;18.20;99.90;;;;;;5112609;28;20778;-73
2022/10/04 09:58:10;;;;;;;15.17;14.27;;;18.30;99.70;;;;;;5112453;28;20594;-73
2022/10/04 10:00:46;;;;;;;14.93;14.13;;;18.40;99.40;;;;;;5076547;28;20433;-71
2022/10/04 10:03:52;;;;;;;14.70;13.87;;;18.40;99.90;;;;;;5112233;28;20978;-72
2022/10/04 10:06:40;;;;;;;14.77;14.07;;;18.80;98.70;;;;;;5098636;28;20510;-72
2022/10/04 10:09:19;;;;;;;16.03;15.00;;;18.80;98.80;;;;;;5112616;28;20449;-73
2022/10/04 10:15:13;;;;;;;14.20;13.27;;;20.10;95.50;;;;;;5112204;28;20425;-73
2022/10/04 10:17:46;;;;;;;14.77;13.90;;;18.80;97.40;;;;;;5112143;28;20930;-73
2022/10/04 10:20:42;;;;;;;14.37;13.40;;;18.40;99.90;;;;;;5112022;28;20479;-72
2022/10/04 10:23:38;;;;;;;15.33;14.53;;;18.50;99.30;;;;;;5112315;28;20449;-72
2022/10/04 10:26:21;;;;;;;14.40;13.33;;;18.90;99.10;;;;;;5111831;28;20449;-73
2022/10/04 10:29:18;;;;;;;17.20;15.67;;;19.40;98.30;;;;;;5111835;28;20456;-73
2022/10/04 10:31:58;;;;;;;14.63;13.73;;;19.40;97.50;;;;;;5111846;28;20452;-73
2022/10/04 10:35:02;;;;;;;13.50;12.70;;;19.40;97.30;;;;;;5112088;28;20480;-73
2022/10/04 10:37:42;;;;;;;15.00;14.20;;;20.00;97.10;;;;;;5111528;28;20441;-73
2022/10/04 10:40:44;;;;;;;15.13;14.10;;;20.40;95.90;;;;;;5112004;28;20445;-73
2022/10/04 10:43:26;;;;;;;15.30;14.50;;;20.50;94.90;;;;;;5111515;28;20444;-71
2022/10/04 10:46:17;;;;;;;15.80;14.90;;;20.70;95.20;;;;;;5111918;28;20484;-72
2022/10/04 10:49:09;;;;;;;16.00;14.90;;;20.90;94.00;;;;;;5111274;28;20628;-72
2022/10/04 10:52:05;;;;;;;17.00;16.03;;;20.90;94.40;;;;;;5111639;28;20820;-72
2022/10/04 10:55:01;;;;;;;15.37;14.33;;;21.10;94.00;;;;;;5111342;28;20472;-73
2022/10/04 10:57:56;;;;;;;15.63;14.60;;;21.40;93.80;;;;;;5111358;28;20456;-73
2022/10/04 11:00:24;;;;;;;15.10;14.30;;;21.80;93.50;;;;;;5111567;28;20445;-71
2022/10/04 11:03:18;;;;;;;14.83;14.00;;;22.50;92.10;;;;;;5111219;28;20797;-73
2022/10/04 11:06:18;;;;;;;14.90;14.13;;;22.50;91.00;;;;;;5111105;28;20488;-73
2022/10/04 11:09:21;;;;;;;14.60;13.80;;;21.90;91.90;;;;;;5111145;28;20438;-73
2022/10/04 11:12:24;;;;;;;14.33;13.50;;;21.30;93.10;;;;;;5110980;28;20488;-73
2022/10/04 11:15:26;;;;;;;14.67;13.80;;;21.80;93.50;;;;;;5035135;28;20453;-73
2022/10/04 11:18:25;;;;;;;15.30;14.40;;;23.00;91.50;;;;;;5111327;28;20448;-72
2022/10/04 11:21:34;;;;;;;14.00;13.30;;;24.10;89.50;;;;;;5111024;28;20935;-72
2022/10/04 11:24:27;;;;;;;14.50;13.90;;;24.30;86.10;;;;;;5110708;28;20998;-72
2022/10/04 11:27:27;;;;;;;15.37;14.43;;;24.10;84.50;;;;;;5111022;28;20465;-72
2022/10/04 11:30:23;;;;;;;14.10;13.07;;;23.00;88.60;;;;;;5111054;28;20476;-74
2022/10/04 11:33:23;;;;;;;13.13;12.50;;;23.40;88.30;;;;;;5103607;28;20452;-72
2022/10/04 11:36:12;;;;;;;14.70;13.80;;;23.90;85.90;;;;;;5110959;28;20468;-74
2022/10/04 11:39:02;;;;;;;14.80;14.00;;;23.30;86.70;;;;;;5110943;28;20434;-73
2022/10/04 11:41:42;;;;;;;14.00;13.30;;;23.10;88.50;;;;;;5110280;28;20736;-73
2022/10/04 11:44:32;;;;;;;16.00;15.10;;;23.50;88.60;;;;;;5110489;28;20555;-74
2022/10/04 11:47:08;;;;;;;15.37;14.30;;;23.90;85.90;;;;;;5110331;28;20814;-73
2022/10/04 11:49:51;;;;;;;14.30;13.60;;;23.80;86.00;;;;;;5110466;28;20477;-74
2022/10/04 11:52:55;;;;;;;15.33;14.53;;;23.60;86.70;;;;;;5110288;28;20540;-71
2022/10/04 11:56:03;;;;;;;14.47;13.77;;;24.30;85.00;;;;;;5067665;27;20448;-73
2022/10/04 11:58:44;;;;;;;14.83;13.77;;;24.30;85.40;;;;;;5110163;28;20860;-75
2022/10/04 12:01:39;;;;;;;15.60;14.80;;;23.90;86.10;;;;;;5110320;28;20444;-72
2022/10/04 12:04:36;;;;;;;18.60;17.00;;;23.70;85.80;;;;;;5110540;28;20441;-72
2022/10/04 12:07:22;;;;;;;15.10;13.97;;;23.30;89.20;;;;;;5110172;28;20800;-73
2022/10/04 12:09:56;;;;;;;17.23;16.23;;;23.50;87.30;;;;;;5110045;28;20532;-72
2022/10/04 12:12:50;;;;;;;15.87;15.07;;;24.10;87.10;;;;;;5110275;28;20498;-73
2022/10/04 12:15:44;;;;;;;14.80;13.90;;;25.00;84.60;;;;;;5109825;28;20438;-73
2022/10/04 12:19:06;;;;;;;15.07;14.17;;;25.10;82.40;;;;;;5109985;28;20449;-73
2022/10/04 12:22:09;;;;;;;15.50;14.53;;;25.50;81.00;;;;;;5109506;28;21011;-73
2022/10/04 12:25:12;;;;;;;14.73;13.80;;;25.00;82.30;;;;;;5109812;28;20472;-73
2022/10/04 12:28:16;;;;;;;13.03;12.33;;;24.50;83.80;;;;;;5109803;28;20445;-73
2022/10/04 12:31:08;;;;;;;13.70;13.07;;;23.90;85.30;;;;;;5109561;28;20452;-72
2022/10/04 12:33:41;;;;;;;13.50;12.97;;;24.70;84.80;;;;;;5109701;28;20503;-73
2022/10/04 12:36:23;;;;;;;14.40;13.37;;;24.40;84.00;;;;;;5109891;28;20883;-73
2022/10/04 12:39:02;;;;;;;13.40;12.50;;;23.30;88.30;;;;;;5109750;28;20556;-74
2022/10/04 12:41:37;;;;;;;13.60;12.90;;;23.00;89.10;;;;;;5109728;28;20469;-73
2022/10/04 12:44:18;;;;;;;14.10;13.40;;;22.50;90.40;;;;;;5109660;28;20444;-73
2022/10/04 12:46:56;;;;;;;13.03;12.30;;;22.80;90.70;;;;;;5109550;28;20441;-73
2022/10/04 12:49:35;;;;;;;14.03;13.40;;;23.30;89.80;;;;;;5109704;28;20484;-74
2022/10/04 12:52:10;;;;;;;12.77;12.27;;;24.00;87.40;;;;;;5109459;28;20437;-74
2022/10/04 12:54:43;;;;;;;14.30;13.47;;;24.20;86.60;;;;;;5109869;28;20938;-74
2022/10/04 12:57:36;;;;;;;15.73;14.77;;;24.10;87.50;;;;;;5109527;28;20441;-72
2022/10/04 13:00:14;;;;;;;15.10;14.30;;;24.50;87.50;;;;;;5109152;28;20935;-73
2022/10/04 13:03:07;;;;;;;15.87;15.17;;;25.60;82.50;;;;;;5109355;28;21068;-72
2022/10/04 13:05:42;;;;;;;15.93;14.93;;;25.60;81.80;;;;;;5110186;28;21079;-72
2022/10/04 13:08:22;;;;;;;14.27;13.47;;;25.10;82.60;;;;;;5113482;28;20460;-73
2022/10/04 13:11:10;;;;;;;15.13;14.33;;;24.70;84.20;;;;;;5113373;28;20446;-76
2022/10/04 13:14:00;;;;;;;13.40;12.67;;;25.20;83.10;;;;;;5113621;28;20445;-73
2022/10/04 13:16:41;;;;;;;15.87;15.07;;;25.80;80.80;;;;;;5113481;28;20448;-73
2022/10/04 13:19:16;;;;;;;15.07;14.17;;;25.60;81.40;;;;;;5113617;28;20753;-74
2022/10/04 13:22:01;;;;;;;15.80;15.00;;;25.90;80.90;;;;;;5113096;28;20437;-74
2022/10/04 13:24:53;;;;;;;15.37;14.57;;;26.30;80.20;;;;;;5112952;28;20445;-74
2022/10/04 13:27:29;;;;;;;14.20;13.40;;;27.10;76.80;;;;;;5113052;28;20517;-72
2022/10/04 13:30:04;;;;;;;15.70;14.87;;;27.40;76.00;;;;;;5112971;28;20441;-72
2022/10/04 13:32:41;;;;;;;15.20;14.50;;;26.10;77.10;;;;;;5113147;28;20677;-71
2022/10/04 13:35:17;;;;;;;13.93;13.13;;;24.90;80.10;;;;;;5113152;28;20521;-73
2022/10/04 13:37:55;;;;;;;14.70;14.00;;;24.10;83.20;;;;;;5113056;28;20611;-73
2022/10/04 13:40:36;;;;;;;13.20;12.50;;;23.20;85.60;;;;;;5113231;28;20445;-73
2022/10/04 13:43:36;;;;;;;13.57;12.77;;;22.50;88.90;;;;;;5112803;28;20448;-73
2022/10/04 13:46:18;;;;;;;13.80;13.20;;;21.60;91.10;;;;;;5112523;28;20493;-73